sensor_id;sensor_type;location;lat;lon;timestamp;pressure;altitude;pressure_sealevel;temperature;humidity
23446;BME280;11895;48.738;9.320;2023-05-01T00:01:10;98728.47;;;12.42;100.00
23446;BME280;11895;48.738;9.320;2023-05-01T00:03:37;98726.41;;;12.47;100.00
23446;BME280;11895;48.738;9.320;2023-05-01T00:06:05;98721.53;;;12.38;100.00
23446;BME280;11895;48.738;9.320;2023-05-01T00:08:34;98714.34;;;12.37;100.00
23446;BME280;11895;48.738;9.320;2023-05-01T00:11:05;98709.16;;;12.34;100.00
23446;BME280;11895;48.738;9.320;2023-05-01T00:13:36;98711.91;;;12.32;100.00
23446;BME280;11895;48.738;9.320;2023-05-01T00:16:10;98700.44;;;12.29;100.00
23446;BME280;11895;48.738;9.320;2023-05-01T00:18:38;98700.06;;;12.19;100.00
23446;BME280;11895;48.738;9.320;2023-05-01T00:21:06;98697.97;;;12.24;100.00
23446;BME280;11895;48.738;9.320;2023-05-01T00:23:35;98692.38;;;12.27;100.00
23446;BME280;11895;48.738;9.320;2023-05-01T00:26:03;98693.44;;;12.25;100.00
23446;BME280;11895;48.738;9.320;2023-05-01T00:28:30;98691.63;;;12.25;100.00
23446;BME280;11895;48.738;9.320;2023-05-01T00:30:59;98687.44;;;12.20;100.00
23446;BME280;11895;48.738;9.320;2023-05-01T00:33:26;98678.72;;;12.15;100.00
23446;BME280;11895;48.738;9.320;2023-05-01T00:35:54;98684.97;;;12.15;100.00
23446;BME280;11895;48.738;9.320;2023-05-01T00:38:22;98679.50;;;12.17;100.00
23446;BME280;11895;48.738;9.320;2023-05-01T00:40:50;98679.50;;;12.17;100.00
23446;BME280;11895;48.738;9.320;2023-05-01T00:43:17;98682.44;;;12.12;100.00
23446;BME280;11895;48.738;9.320;2023-05-01T00:45:45;98672.69;;;12.09;100.00
23446;BME280;11895;48.738;9.320;2023-05-01T00:48:14;98678.09;;;12.09;100.00
23446;BME280;11895;48.738;9.320;2023-05-01T00:50:44;98675.47;;;12.08;100.00
23446;BME280;11895;48.738;9.320;2023-05-01T00:53:12;98673.00;;;12.03;100.00
23446;BME280;11895;48.738;9.320;2023-05-01T00:55:41;98670.31;;;12.03;100.00
23446;BME280;11895;48.738;9.320;2023-05-01T00:58:10;98666.22;;;11.96;100.00
23446;BME280;11895;48.738;9.320;2023-05-01T01:00:38;98660.66;;;11.99;100.00
23446;BME280;11895;48.738;9.320;2023-05-01T01:03:08;98665.72;;;12.05;100.00
23446;BME280;11895;48.738;9.320;2023-05-01T01:05:50;98658.59;;;12.04;100.00
23446;BME280;11895;48.738;9.320;2023-05-01T01:08:28;98660.31;;;12.05;100.00
23446;BME280;11895;48.738;9.320;2023-05-01T01:16:47;98648.09;;;11.98;100.00
23446;BME280;11895;48.738;9.320;2023-05-01T01:22:22;98649.50;;;12.05;100.00
23446;BME280;11895;48.738;9.320;2023-05-01T01:31:48;98639.06;;;11.99;100.00
23446;BME280;11895;48.738;9.320;2023-05-01T01:34:46;98645.59;;;11.78;100.00
23446;BME280;11895;48.738;9.320;2023-05-01T01:37:34;98636.44;;;11.98;100.00
23446;BME280;11895;48.738;9.320;2023-05-01T01:40:30;98639.09;;;11.82;100.00
23446;BME280;11895;48.738;9.320;2023-05-01T01:43:06;98637.50;;;11.95;100.00
23446;BME280;11895;48.738;9.320;2023-05-01T01:45:46;98637.13;;;12.01;100.00
23446;BME280;11895;48.738;9.320;2023-05-01T01:48:21;98647.44;;;12.11;100.00
23446;BME280;11895;48.738;9.320;2023-05-01T01:50:59;98639.25;;;12.12;100.00
23446;BME280;11895;48.738;9.320;2023-05-01T01:53:29;98636.63;;;12.11;100.00
23446;BME280;11895;48.738;9.320;2023-05-01T01:55:59;98633.84;;;12.12;100.00
23446;BME280;11895;48.738;9.320;2023-05-01T01:58:31;98625.47;;;12.17;100.00
23446;BME280;11895;48.738;9.320;2023-05-01T02:01:02;98629.00;;;12.19;100.00
23446;BME280;11895;48.738;9.320;2023-05-01T02:03:31;98627.06;;;12.21;100.00
23446;BME280;11895;48.738;9.320;2023-05-01T02:06:00;98626.09;;;12.22;100.00
23446;BME280;11895;48.738;9.320;2023-05-01T02:08:30;98619.72;;;12.23;100.00
23446;BME280;11895;48.738;9.320;2023-05-01T02:10:59;98603.53;;;12.23;100.00
23446;BME280;11895;48.738;9.320;2023-05-01T02:13:30;98610.69;;;12.24;100.00
23446;BME280;11895;48.738;9.320;2023-05-01T02:16:02;98606.50;;;12.34;100.00
23446;BME280;11895;48.738;9.320;2023-05-01T02:18:32;98604.59;;;12.36;100.00
23446;BME280;11895;48.738;9.320;2023-05-01T02:21:02;98603.00;;;12.32;100.00
23446;BME280;11895;48.738;9.320;2023-05-01T02:23:37;98593.63;;;12.39;100.00
23446;BME280;11895;48.738;9.320;2023-05-01T02:26:11;98593.78;;;12.36;100.00
23446;BME280;11895;48.738;9.320;2023-05-01T02:28:40;98595.50;;;12.37;100.00
23446;BME280;11895;48.738;9.320;2023-05-01T02:31:09;98588.97;;;12.41;100.00
23446;BME280;11895;48.738;9.320;2023-05-01T02:33:36;98584.38;;;12.43;100.00
23446;BME280;11895;48.738;9.320;2023-05-01T02:36:04;98588.72;;;12.30;100.00
23446;BME280;11895;48.738;9.320;2023-05-01T02:38:33;98582.47;;;12.29;100.00
23446;BME280;11895;48.738;9.320;2023-05-01T02:41:02;98578.28;;;12.40;100.00
23446;BME280;11895;48.738;9.320;2023-05-01T02:43:31;98584.72;;;12.53;100.00
23446;BME280;11895;48.738;9.320;2023-05-01T02:46:01;98583.56;;;12.41;100.00
23446;BME280;11895;48.738;9.320;2023-05-01T02:48:33;98578.44;;;12.21;100.00
23446;BME280;11895;48.738;9.320;2023-05-01T02:51:03;98580.47;;;12.33;100.00
23446;BME280;11895;48.738;9.320;2023-05-01T02:53:31;98574.78;;;12.38;100.00
23446;BME280;11895;48.738;9.320;2023-05-01T02:56:13;98574.97;;;12.34;100.00
23446;BME280;11895;48.738;9.320;2023-05-01T02:58:41;98580.09;;;12.39;100.00
23446;BME280;11895;48.738;9.320;2023-05-01T03:01:08;98576.81;;;12.34;100.00
23446;BME280;11895;48.738;9.320;2023-05-01T03:03:38;98569.31;;;12.39;100.00
23446;BME280;11895;48.738;9.320;2023-05-01T03:06:05;98572.41;;;12.47;100.00
23446;BME280;11895;48.738;9.320;2023-05-01T03:08:33;98577.22;;;12.42;100.00
23446;BME280;11895;48.738;9.320;2023-05-01T03:11:07;98574.50;;;12.42;100.00
23446;BME280;11895;48.738;9.320;2023-05-01T03:13:34;98581.41;;;12.48;100.00
23446;BME280;11895;48.738;9.320;2023-05-01T03:16:02;98577.56;;;12.36;100.00
23446;BME280;11895;48.738;9.320;2023-05-01T03:18:30;98576.00;;;12.32;100.00
23446;BME280;11895;48.738;9.320;2023-05-01T03:20:57;98571.81;;;12.42;100.00
23446;BME280;11895;48.738;9.320;2023-05-01T03:23:26;98572.69;;;12.43;100.00
23446;BME280;11895;48.738;9.320;2023-05-01T03:25:54;98578.88;;;12.45;100.00
23446;BME280;11895;48.738;9.320;2023-05-01T03:28:22;98570.34;;;12.37;100.00
23446;BME280;11895;48.738;9.320;2023-05-01T03:30:52;98565.41;;;12.29;100.00
23446;BME280;11895;48.738;9.320;2023-05-01T03:33:19;98564.69;;;12.25;100.00
23446;BME280;11895;48.738;9.320;2023-05-01T03:35:47;98563.72;;;12.26;100.00
23446;BME280;11895;48.738;9.320;2023-05-01T03:38:15;98562.94;;;12.40;100.00
23446;BME280;11895;48.738;9.320;2023-05-01T03:41:08;98560.06;;;12.43;100.00
23446;BME280;11895;48.738;9.320;2023-05-01T03:43:41;98562.34;;;12.35;100.00
23446;BME280;11895;48.738;9.320;2023-05-01T03:46:18;98566.06;;;12.48;100.00
23446;BME280;11895;48.738;9.320;2023-05-01T03:48:49;98552.19;;;12.54;100.00
23446;BME280;11895;48.738;9.320;2023-05-01T03:51:18;98550.03;;;12.45;100.00
23446;BME280;11895;48.738;9.320;2023-05-01T03:53:50;98548.47;;;12.41;100.00
23446;BME280;11895;48.738;9.320;2023-05-01T03:56:18;98546.38;;;12.30;100.00
23446;BME280;11895;48.738;9.320;2023-05-01T03:58:46;98547.59;;;12.41;100.00
23446;BME280;11895;48.738;9.320;2023-05-01T04:01:13;98546.19;;;12.49;100.00
23446;BME280;11895;48.738;9.320;2023-05-01T04:03:45;98551.44;;;12.52;100.00
23446;BME280;11895;48.738;9.320;2023-05-01T04:06:31;98549.50;;;12.54;100.00
23446;BME280;11895;48.738;9.320;2023-05-01T04:09:01;98552.28;;;12.37;100.00
23446;BME280;11895;48.738;9.320;2023-05-01T04:11:30;98552.91;;;12.42;100.00
23446;BME280;11895;48.738;9.320;2023-05-01T04:13:57;98550.19;;;12.42;100.00
23446;BME280;11895;48.738;9.320;2023-05-01T04:16:24;98553.69;;;12.44;100.00
23446;BME280;11895;48.738;9.320;2023-05-01T04:18:52;98556.03;;;12.50;100.00
23446;BME280;11895;48.738;9.320;2023-05-01T04:21:23;98545.31;;;12.49;100.00
23446;BME280;11895;48.738;9.320;2023-05-01T04:23:56;98550.47;;;12.53;100.00
23446;BME280;11895;48.738;9.320;2023-05-01T04:26:23;98555.75;;;12.55;100.00
23446;BME280;11895;48.738;9.320;2023-05-01T04:28:50;98547.44;;;12.44;100.00
23446;BME280;11895;48.738;9.320;2023-05-01T04:31:21;98556.50;;;12.27;100.00
23446;BME280;11895;48.738;9.320;2023-05-01T04:33:48;98552.84;;;12.12;100.00
23446;BME280;11895;48.738;9.320;2023-05-01T04:36:19;98556.94;;;12.35;100.00
23446;BME280;11895;48.738;9.320;2023-05-01T04:38:47;98551.63;;;12.33;100.00
23446;BME280;11895;48.738;9.320;2023-05-01T04:41:16;98551.16;;;12.41;100.00
23446;BME280;11895;48.738;9.320;2023-05-01T04:43:44;98551.22;;;12.55;100.00
23446;BME280;11895;48.738;9.320;2023-05-01T04:46:18;98546.97;;;12.51;100.00
23446;BME280;11895;48.738;9.320;2023-05-01T04:48:45;98547.75;;;12.53;100.00
23446;BME280;11895;48.738;9.320;2023-05-01T04:51:12;98546.97;;;12.51;100.00
23446;BME280;11895;48.738;9.320;2023-05-01T04:53:40;98552.56;;;12.48;100.00
23446;BME280;11895;48.738;9.320;2023-05-01T04:56:17;98552.28;;;12.53;100.00
23446;BME280;11895;48.738;9.320;2023-05-01T04:58:46;98555.44;;;12.45;100.00
23446;BME280;11895;48.738;9.320;2023-05-01T05:01:16;98557.53;;;12.40;100.00
23446;BME280;11895;48.738;9.320;2023-05-01T05:03:44;98562.22;;;12.52;100.00
23446;BME280;11895;48.738;9.320;2023-05-01T05:06:16;98555.72;;;12.71;100.00
23446;BME280;11895;48.738;9.320;2023-05-01T05:08:43;98562.53;;;12.78;100.00
23446;BME280;11895;48.738;9.320;2023-05-01T05:11:11;98558.84;;;12.79;100.00
23446;BME280;11895;48.738;9.320;2023-05-01T05:13:54;98558.31;;;12.88;100.00
23446;BME280;11895;48.738;9.320;2023-05-01T05:16:21;98561.78;;;12.90;100.00
23446;BME280;11895;48.738;9.320;2023-05-01T05:18:49;98554.13;;;12.82;100.00
23446;BME280;11895;48.738;9.320;2023-05-01T05:21:17;98559.88;;;12.92;100.00
23446;BME280;11895;48.738;9.320;2023-05-01T05:23:50;98560.25;;;13.00;100.00
23446;BME280;11895;48.738;9.320;2023-05-01T05:26:19;98557.38;;;13.03;100.00
23446;BME280;11895;48.738;9.320;2023-05-01T05:28:49;98559.66;;;12.95;100.00
23446;BME280;11895;48.738;9.320;2023-05-01T05:31:17;98549.84;;;13.08;100.00
23446;BME280;11895;48.738;9.320;2023-05-01T05:33:45;98560.38;;;13.13;100.00
23446;BME280;11895;48.738;9.320;2023-05-01T05:36:14;98555.78;;;13.15;100.00
23446;BME280;11895;48.738;9.320;2023-05-01T05:38:43;98556.00;;;13.26;100.00
23446;BME280;11895;48.738;9.320;2023-05-01T05:41:15;98559.03;;;13.36;100.00
23446;BME280;11895;48.738;9.320;2023-05-01T05:43:44;98556.59;;;13.31;100.00
23446;BME280;11895;48.738;9.320;2023-05-01T05:46:11;98548.75;;;13.27;100.00
23446;BME280;11895;48.738;9.320;2023-05-01T05:48:40;98557.84;;;13.26;100.00
23446;BME280;11895;48.738;9.320;2023-05-01T05:51:09;98551.59;;;13.09;100.00
23446;BME280;11895;48.738;9.320;2023-05-01T05:53:37;98559.13;;;13.19;100.00
23446;BME280;11895;48.738;9.320;2023-05-01T05:56:07;98563.56;;;13.20;100.00
23446;BME280;11895;48.738;9.320;2023-05-01T05:58:34;98568.19;;;13.03;100.00
23446;BME280;11895;48.738;9.320;2023-05-01T06:01:01;98572.28;;;13.10;100.00
23446;BME280;11895;48.738;9.320;2023-05-01T06:03:29;98571.06;;;13.00;100.00
23446;BME280;11895;48.738;9.320;2023-05-01T06:06:00;98574.00;;;13.11;100.00
23446;BME280;11895;48.738;9.320;2023-05-01T06:08:28;98569.09;;;13.18;100.00
23446;BME280;11895;48.738;9.320;2023-05-01T06:10:55;98570.72;;;13.06;100.00
23446;BME280;11895;48.738;9.320;2023-05-01T06:13:27;98563.94;;;12.99;100.00
23446;BME280;11895;48.738;9.320;2023-05-01T06:15:55;98568.66;;;13.10;100.00
23446;BME280;11895;48.738;9.320;2023-05-01T06:18:23;98569.53;;;12.96;100.00
23446;BME280;11895;48.738;9.320;2023-05-01T06:20:50;98570.88;;;13.03;100.00
23446;BME280;11895;48.738;9.320;2023-05-01T06:23:19;98564.50;;;13.04;100.00
23446;BME280;11895;48.738;9.320;2023-05-01T06:26:03;98571.22;;;12.83;100.00
23446;BME280;11895;48.738;9.320;2023-05-01T06:28:30;98572.41;;;12.93;100.00
23446;BME280;11895;48.738;9.320;2023-05-01T06:30:58;98570.34;;;13.12;100.00
23446;BME280;11895;48.738;9.320;2023-05-01T06:33:26;98569.16;;;13.32;100.00
23446;BME280;11895;48.738;9.320;2023-05-01T06:36:11;98577.16;;;13.34;100.00
23446;BME280;11895;48.738;9.320;2023-05-01T06:38:38;98568.97;;;13.20;100.00
23446;BME280;11895;48.738;9.320;2023-05-01T06:41:08;98580.28;;;13.42;100.00
23446;BME280;11895;48.738;9.320;2023-05-01T06:43:35;98574.00;;;13.56;100.00
23446;BME280;11895;48.738;9.320;2023-05-01T06:46:03;98590.66;;;13.64;100.00
23446;BME280;11895;48.738;9.320;2023-05-01T06:48:33;98582.72;;;13.75;100.00
23446;BME280;11895;48.738;9.320;2023-05-01T06:51:00;98590.06;;;13.73;100.00
23446;BME280;11895;48.738;9.320;2023-05-01T06:53:28;98593.63;;;13.59;100.00
23446;BME280;11895;48.738;9.320;2023-05-01T06:55:55;98595.28;;;13.76;100.00
23446;BME280;11895;48.738;9.320;2023-05-01T06:58:25;98591.88;;;13.58;100.00
23446;BME280;11895;48.738;9.320;2023-05-01T07:00:53;98596.41;;;13.13;100.00
23446;BME280;11895;48.738;9.320;2023-05-01T07:03:21;98599.00;;;13.01;100.00
23446;BME280;11895;48.738;9.320;2023-05-01T07:05:49;98599.06;;;12.99;100.00
23446;BME280;11895;48.738;9.320;2023-05-01T07:08:16;98604.97;;;13.22;100.00
23446;BME280;11895;48.738;9.320;2023-05-01T07:10:44;98601.59;;;13.02;100.00
23446;BME280;11895;48.738;9.320;2023-05-01T07:13:12;98609.88;;;12.99;100.00
23446;BME280;11895;48.738;9.320;2023-05-01T07:15:39;98597.88;;;12.89;100.00
23446;BME280;11895;48.738;9.320;2023-05-01T07:18:06;98605.66;;;13.09;100.00
23446;BME280;11895;48.738;9.320;2023-05-01T07:20:34;98611.78;;;12.83;100.00
23446;BME280;11895;48.738;9.320;2023-05-01T07:23:01;98608.28;;;13.27;100.00
23446;BME280;11895;48.738;9.320;2023-05-01T07:25:33;98609.91;;;13.29;100.00
23446;BME280;11895;48.738;9.320;2023-05-01T07:28:00;98604.44;;;13.45;100.00
23446;BME280;11895;48.738;9.320;2023-05-01T07:30:30;98612.94;;;13.53;100.00
23446;BME280;11895;48.738;9.320;2023-05-01T07:32:59;98608.13;;;13.44;100.00
23446;BME280;11895;48.738;9.320;2023-05-01T07:35:27;98599.91;;;13.60;100.00
23446;BME280;11895;48.738;9.320;2023-05-01T07:37:55;98602.34;;;13.65;100.00
23446;BME280;11895;48.738;9.320;2023-05-01T07:40:22;98602.41;;;14.06;100.00
23446;BME280;11895;48.738;9.320;2023-05-01T07:42:49;98593.72;;;14.01;100.00
23446;BME280;11895;48.738;9.320;2023-05-01T07:45:20;98595.91;;;14.23;100.00
23446;BME280;11895;48.738;9.320;2023-05-01T07:47:48;98599.63;;;14.07;100.00
23446;BME280;11895;48.738;9.320;2023-05-01T07:50:16;98588.63;;;14.52;100.00
23446;BME280;11895;48.738;9.320;2023-05-01T07:52:43;98595.78;;;14.53;100.00
23446;BME280;11895;48.738;9.320;2023-05-01T07:55:11;98588.66;;;14.64;100.00
23446;BME280;11895;48.738;9.320;2023-05-01T07:57:38;98585.69;;;14.40;100.00
23446;BME280;11895;48.738;9.320;2023-05-01T08:00:06;98577.00;;;14.77;100.00
23446;BME280;11895;48.738;9.320;2023-05-01T08:02:39;98575.63;;;14.57;100.00
23446;BME280;11895;48.738;9.320;2023-05-01T08:05:08;98583.28;;;15.04;100.00
23446;BME280;11895;48.738;9.320;2023-05-01T08:07:36;98577.53;;;15.22;100.00
23446;BME280;11895;48.738;9.320;2023-05-01T08:10:04;98573.94;;;15.08;100.00
23446;BME280;11895;48.738;9.320;2023-05-01T08:12:32;98583.75;;;15.24;100.00
23446;BME280;11895;48.738;9.320;2023-05-01T08:14:59;98572.50;;;14.90;100.00
23446;BME280;11895;48.738;9.320;2023-05-01T08:17:26;98577.00;;;15.42;100.00
23446;BME280;11895;48.738;9.320;2023-05-01T08:19:54;98573.91;;;15.48;100.00
23446;BME280;11895;48.738;9.320;2023-05-01T08:22:23;98573.66;;;15.51;100.00
23446;BME280;11895;48.738;9.320;2023-05-01T08:24:51;98571.03;;;16.13;100.00
23446;BME280;11895;48.738;9.320;2023-05-01T08:27:19;98571.94;;;16.38;100.00
23446;BME280;11895;48.738;9.320;2023-05-01T08:29:46;98567.38;;;15.89;100.00
23446;BME280;11895;48.738;9.320;2023-05-01T08:32:16;98559.75;;;15.56;100.00
23446;BME280;11895;48.738;9.320;2023-05-01T08:34:45;98563.91;;;15.87;100.00
23446;BME280;11895;48.738;9.320;2023-05-01T08:37:13;98562.38;;;15.96;100.00
23446;BME280;11895;48.738;9.320;2023-05-01T08:39:40;98560.28;;;16.12;100.00
23446;BME280;11895;48.738;9.320;2023-05-01T08:42:07;98561.53;;;16.32;100.00
23446;BME280;11895;48.738;9.320;2023-05-01T08:44:37;98553.94;;;16.48;100.00
23446;BME280;11895;48.738;9.320;2023-05-01T08:47:16;98556.19;;;16.91;100.00
23446;BME280;11895;48.738;9.320;2023-05-01T08:49:45;98559.66;;;16.69;100.00
23446;BME280;11895;48.738;9.320;2023-05-01T08:52:14;98560.03;;;17.24;100.00
23446;BME280;11895;48.738;9.320;2023-05-01T08:54:43;98561.66;;;17.95;100.00
23446;BME280;11895;48.738;9.320;2023-05-01T08:57:13;98552.22;;;18.10;100.00
23446;BME280;11895;48.738;9.320;2023-05-01T08:59:40;98563.88;;;17.90;100.00
23446;BME280;11895;48.738;9.320;2023-05-01T09:02:09;98564.81;;;17.55;100.00
23446;BME280;11895;48.738;9.320;2023-05-01T09:04:38;98557.34;;;18.58;100.00
23446;BME280;11895;48.738;9.320;2023-05-01T09:07:07;98555.50;;;19.02;100.00
23446;BME280;11895;48.738;9.320;2023-05-01T09:09:35;98557.53;;;18.34;100.00
23446;BME280;11895;48.738;9.320;2023-05-01T09:12:25;98558.59;;;19.30;100.00
23446;BME280;11895;48.738;9.320;2023-05-01T09:14:55;98559.41;;;19.09;100.00
23446;BME280;11895;48.738;9.320;2023-05-01T09:17:23;98558.22;;;19.86;100.00
23446;BME280;11895;48.738;9.320;2023-05-01T09:19:52;98559.97;;;19.45;100.00
23446;BME280;11895;48.738;9.320;2023-05-01T09:22:20;98553.56;;;19.97;100.00
23446;BME280;11895;48.738;9.320;2023-05-01T09:24:48;98554.91;;;20.53;100.00
23446;BME280;11895;48.738;9.320;2023-05-01T09:27:16;98560.31;;;19.72;100.00
23446;BME280;11895;48.738;9.320;2023-05-01T09:29:46;98557.59;;;20.03;100.00
23446;BME280;11895;48.738;9.320;2023-05-01T09:32:24;98554.38;;;19.67;100.00
23446;BME280;11895;48.738;9.320;2023-05-01T09:35:12;98559.47;;;20.43;100.00
23446;BME280;11895;48.738;9.320;2023-05-01T09:37:41;98555.41;;;20.27;100.00
23446;BME280;11895;48.738;9.320;2023-05-01T09:40:12;98559.06;;;20.07;100.00
23446;BME280;11895;48.738;9.320;2023-05-01T09:42:49;98555.41;;;19.66;100.00
23446;BME280;11895;48.738;9.320;2023-05-01T09:45:18;98549.13;;;20.46;100.00
23446;BME280;11895;48.738;9.320;2023-05-01T09:47:46;98550.69;;;19.99;100.00
23446;BME280;11895;48.738;9.320;2023-05-01T09:50:33;98539.69;;;20.60;100.00
23446;BME280;11895;48.738;9.320;2023-05-01T09:53:03;98537.25;;;21.25;100.00
23446;BME280;11895;48.738;9.320;2023-05-01T09:55:33;98542.91;;;21.43;93.55
23446;BME280;11895;48.738;9.320;2023-05-01T09:58:01;98548.47;;;21.51;95.71
23446;BME280;11895;48.738;9.320;2023-05-01T10:00:28;98539.72;;;21.38;91.97
23446;BME280;11895;48.738;9.320;2023-05-01T10:02:56;98544.91;;;21.31;89.71
23446;BME280;11895;48.738;9.320;2023-05-01T10:05:24;98540.53;;;21.67;91.98
23446;BME280;11895;48.738;9.320;2023-05-01T10:08:17;98531.63;;;21.17;88.90
23446;BME280;11895;48.738;9.320;2023-05-01T10:11:01;98535.34;;;21.64;87.21
23446;BME280;11895;48.738;9.320;2023-05-01T10:13:33;98527.13;;;22.11;83.01
23446;BME280;11895;48.738;9.320;2023-05-01T10:16:01;98535.03;;;22.69;75.33
23446;BME280;11895;48.738;9.320;2023-05-01T10:18:36;98530.63;;;23.04;80.18
23446;BME280;11895;48.738;9.320;2023-05-01T10:21:04;98536.66;;;22.90;76.30
23446;BME280;11895;48.738;9.320;2023-05-01T10:23:31;98533.28;;;22.96;79.21
23446;BME280;11895;48.738;9.320;2023-05-01T10:26:01;98530.00;;;22.65;80.40
23446;BME280;11895;48.738;9.320;2023-05-01T10:28:32;98532.75;;;22.92;72.49
23446;BME280;11895;48.738;9.320;2023-05-01T10:30:59;98526.44;;;23.18;71.45
23446;BME280;11895;48.738;9.320;2023-05-01T10:33:27;98529.41;;;23.24;77.78
23446;BME280;11895;48.738;9.320;2023-05-01T10:35:58;98527.50;;;23.87;71.39
23446;BME280;11895;48.738;9.320;2023-05-01T10:38:32;98534.25;;;23.92;62.64
23446;BME280;11895;48.738;9.320;2023-05-01T10:41:01;98526.09;;;23.82;63.40
23446;BME280;11895;48.738;9.320;2023-05-01T10:43:31;98525.91;;;24.10;71.76
23446;BME280;11895;48.738;9.320;2023-05-01T10:51:19;98526.00;;;24.26;57.10
23446;BME280;11895;48.738;9.320;2023-05-01T10:56:41;98525.25;;;22.84;67.71
23446;BME280;11895;48.738;9.320;2023-05-01T10:59:09;98520.72;;;23.11;71.01
23446;BME280;11895;48.738;9.320;2023-05-01T11:01:45;98523.50;;;23.55;69.80
23446;BME280;11895;48.738;9.320;2023-05-01T11:10:01;98513.84;;;24.03;64.57
23446;BME280;11895;48.738;9.320;2023-05-01T11:15:32;98513.34;;;23.55;60.85
23446;BME280;11895;48.738;9.320;2023-05-01T11:18:01;98514.81;;;23.42;63.37
23446;BME280;11895;48.738;9.320;2023-05-01T11:23:03;98504.34;;;22.56;64.29
23446;BME280;11895;48.738;9.320;2023-05-01T11:25:31;98509.53;;;22.59;65.31
23446;BME280;11895;48.738;9.320;2023-05-01T11:28:02;98506.00;;;22.67;69.24
23446;BME280;11895;48.738;9.320;2023-05-01T11:30:40;98512.78;;;22.90;70.50
23446;BME280;11895;48.738;9.320;2023-05-01T11:33:07;98509.50;;;23.04;67.29
23446;BME280;11895;48.738;9.320;2023-05-01T11:35:37;98504.78;;;23.58;65.23
23446;BME280;11895;48.738;9.320;2023-05-01T11:38:05;98506.84;;;23.82;60.74
23446;BME280;11895;48.738;9.320;2023-05-01T11:40:43;98501.31;;;23.74;58.38
23446;BME280;11895;48.738;9.320;2023-05-01T11:43:11;98502.81;;;23.69;56.06
23446;BME280;11895;48.738;9.320;2023-05-01T11:45:38;98500.13;;;23.33;60.09
23446;BME280;11895;48.738;9.320;2023-05-01T11:48:15;98512.81;;;23.52;59.21
23446;BME280;11895;48.738;9.320;2023-05-01T11:50:43;98499.84;;;23.44;54.71
23446;BME280;11895;48.738;9.320;2023-05-01T11:53:13;98499.56;;;23.73;55.88
23446;BME280;11895;48.738;9.320;2023-05-01T11:55:44;98492.84;;;24.02;58.66
23446;BME280;11895;48.738;9.320;2023-05-01T11:58:12;98499.03;;;23.96;59.43
23446;BME280;11895;48.738;9.320;2023-05-01T12:00:41;98498.47;;;23.92;59.98
23446;BME280;11895;48.738;9.320;2023-05-01T12:03:12;98498.38;;;23.50;53.13
23446;BME280;11895;48.738;9.320;2023-05-01T12:05:43;98496.78;;;23.65;56.86
23446;BME280;11895;48.738;9.320;2023-05-01T12:08:19;98499.09;;;23.34;54.42
23446;BME280;11895;48.738;9.320;2023-05-01T12:10:55;98498.81;;;23.19;59.54
23446;BME280;11895;48.738;9.320;2023-05-01T12:13:24;98502.75;;;23.17;60.38
23446;BME280;11895;48.738;9.320;2023-05-01T12:15:54;98496.91;;;23.38;60.10
23446;BME280;11895;48.738;9.320;2023-05-01T12:18:23;98493.41;;;23.53;63.78
23446;BME280;11895;48.738;9.320;2023-05-01T12:20:53;98494.94;;;23.30;58.72
23446;BME280;11895;48.738;9.320;2023-05-01T12:23:34;98495.19;;;23.19;56.11
23446;BME280;11895;48.738;9.320;2023-05-01T12:26:17;98488.53;;;23.21;57.91
23446;BME280;11895;48.738;9.320;2023-05-01T12:29:12;98488.94;;;23.08;60.43
23446;BME280;11895;48.738;9.320;2023-05-01T12:31:48;98500.69;;;23.19;64.09
23446;BME280;11895;48.738;9.320;2023-05-01T12:34:28;98500.00;;;22.99;60.26
23446;BME280;11895;48.738;9.320;2023-05-01T12:36:58;98493.41;;;22.92;61.28
23446;BME280;11895;48.738;9.320;2023-05-01T12:39:39;98497.09;;;23.18;66.33
23446;BME280;11895;48.738;9.320;2023-05-01T12:42:15;98501.38;;;23.21;71.59
23446;BME280;11895;48.738;9.320;2023-05-01T12:44:44;98493.88;;;22.42;65.21
23446;BME280;11895;48.738;9.320;2023-05-01T12:47:12;98486.16;;;22.55;63.53
23446;BME280;11895;48.738;9.320;2023-05-01T12:49:39;98498.59;;;22.95;62.59
23446;BME280;11895;48.738;9.320;2023-05-01T12:52:07;98503.56;;;22.81;64.51
23446;BME280;11895;48.738;9.320;2023-05-01T12:54:38;98499.66;;;23.38;63.87
23446;BME280;11895;48.738;9.320;2023-05-01T12:57:14;98497.38;;;23.77;55.77
23446;BME280;11895;48.738;9.320;2023-05-01T12:59:45;98493.94;;;24.09;52.35
23446;BME280;11895;48.738;9.320;2023-05-01T13:02:16;98500.50;;;24.16;53.27
23446;BME280;11895;48.738;9.320;2023-05-01T13:04:48;98491.75;;;24.21;54.05
23446;BME280;11895;48.738;9.320;2023-05-01T13:07:18;98489.88;;;24.72;50.37
23446;BME280;11895;48.738;9.320;2023-05-01T13:09:56;98481.16;;;25.17;46.26
23446;BME280;11895;48.738;9.320;2023-05-01T13:12:26;98488.19;;;25.69;45.96
23446;BME280;11895;48.738;9.320;2023-05-01T13:14:54;98476.19;;;26.17;42.71
23446;BME280;11895;48.738;9.320;2023-05-01T13:17:27;98478.91;;;26.87;42.39
23446;BME280;11895;48.738;9.320;2023-05-01T13:20:01;98477.47;;;25.98;41.92
23446;BME280;11895;48.738;9.320;2023-05-01T13:22:35;98481.16;;;25.58;44.32
23446;BME280;11895;48.738;9.320;2023-05-01T13:25:15;98477.53;;;25.00;50.18
23446;BME280;11895;48.738;9.320;2023-05-01T13:27:53;98481.44;;;24.73;55.39
23446;BME280;11895;48.738;9.320;2023-05-01T13:30:31;98478.13;;;24.11;50.52
23446;BME280;11895;48.738;9.320;2023-05-01T13:33:03;98477.09;;;23.78;55.21
23446;BME280;11895;48.738;9.320;2023-05-01T13:35:32;98480.13;;;23.23;56.56
23446;BME280;11895;48.738;9.320;2023-05-01T13:38:02;98480.53;;;22.74;60.84
23446;BME280;11895;48.738;9.320;2023-05-01T13:43:01;98489.41;;;20.90;95.70
23446;BME280;11895;48.738;9.320;2023-05-01T13:45:31;98483.03;;;20.01;96.64
23446;BME280;11895;48.738;9.320;2023-05-01T13:47:58;98487.16;;;19.55;97.24